Time;durP1;ratioP1;P1;durP2;ratioP2;P2;SDS_P1;SDS_P2;PMS_P1;PMS_P2;Temp;Humidity;BMP_temperature;BMP_pressure;BME280_temperature;BME280_humidity;BME280_pressure;Samples;Min_cycle;Max_cycle;Signal;HPM_P1;HPM_P2
2023/08/09 00:02:13;;;;;;;;;3.67;2.33;;;;;23.88;100.00;101269.44;5096467;27;46307;-84
2023/08/09 00:04:39;;;;;;;;;2.00;2.00;;;;;23.93;100.00;101272.84;5091075;27;45667;-81
2023/08/09 00:07:04;;;;;;;;;2.67;2.33;;;;;23.86;100.00;101259.63;5088395;27;58318;-83
2023/08/09 00:09:30;;;;;;;;;2.67;2.67;;;;;23.86;100.00;101271.28;5096627;27;45386;-83
2023/08/09 00:11:55;;;;;;;;;2.00;2.00;;;;;23.85;100.00;101257.84;5095659;27;46422;-81
2023/08/09 00:14:20;;;;;;;;;2.00;2.00;;;;;23.84;100.00;101251.59;5094074;27;66229;-81
2023/08/09 00:16:46;;;;;;;;;4.00;2.33;;;;;23.86;100.00;101265.00;5094198;27;45747;-81
2023/08/09 00:19:11;;;;;;;;;2.67;1.00;;;;;23.87;100.00;101266.78;5095080;27;61550;-81
2023/08/09 00:21:37;;;;;;;;;3.00;2.33;;;;;23.83;100.00;101266.00;5093756;27;66298;-83
2023/08/09 00:24:03;;;;;;;;;2.33;2.00;;;;;23.86;100.00;101273.97;5076043;27;45313;-82
2023/08/09 00:26:29;;;;;;;;;3.00;3.00;;;;;23.77;100.00;101283.31;5096398;27;45209;-82
2023/08/09 00:28:55;;;;;;;;;2.00;2.00;;;;;23.74;100.00;101277.13;5094777;27;46844;-82
2023/08/09 00:31:20;;;;;;;;;2.00;2.00;;;;;23.70;100.00;101278.16;5098279;27;46520;-82
2023/08/09 00:33:45;;;;;;;;;3.00;2.00;;;;;23.68;100.00;101274.66;5077490;27;47182;-82
2023/08/09 00:36:11;;;;;;;;;2.00;2.00;;;;;23.68;100.00;101277.34;5095049;27;61930;-82
2023/08/09 00:38:36;;;;;;;;;2.00;2.00;;;;;23.63;100.00;101282.91;5077524;27;64605;-82
2023/08/09 00:41:02;;;;;;;;;2.00;2.00;;;;;23.59;100.00;101283.91;5080417;27;72952;-80
2023/08/09 00:43:28;;;;;;;;;0.00;0.00;;;;;23.60;100.00;101287.53;5104936;27;45326;-83
2023/08/09 00:45:53;;;;;;;;;1.33;1.33;;;;;23.63;100.00;101273.94;5099091;27;45318;-82
2023/08/09 00:48:19;;;;;;;;;2.00;2.00;;;;;23.62;100.00;101266.78;5095705;27;45453;-81
2023/08/09 00:50:44;;;;;;;;;2.67;2.67;;;;;23.71;100.00;101258.38;5078980;27;68601;-82
2023/08/09 00:53:09;;;;;;;;;3.00;3.00;;;;;23.71;100.00;101258.38;5085534;27;45480;-82
2023/08/09 00:55:35;;;;;;;;;2.00;2.00;;;;;23.68;100.00;101266.56;5097445;27;45197;-82
2023/08/09 00:58:00;;;;;;;;;2.00;2.00;;;;;23.64;100.00;101259.53;5078215;27;60906;-82
2023/08/09 01:00:25;;;;;;;;;1.67;1.67;;;;;23.64;100.00;101267.63;5094815;27;62277;-82
2023/08/09 01:02:51;;;;;;;;;2.00;2.00;;;;;23.63;100.00;101258.66;5094073;27;66322;-81
2023/08/09 01:05:16;;;;;;;;;3.00;1.67;;;;;23.73;100.00;101264.59;5078017;27;45478;-82
2023/08/09 01:07:50;;;;;;;;;2.00;2.00;;;;;23.70;100.00;101268.28;5096058;27;45453;-82
2023/08/09 01:10:23;;;;;;;;;4.00;2.67;;;;;23.64;100.00;101270.31;5096052;27;47254;-82
2023/08/09 01:12:53;;;;;;;;;2.00;2.00;;;;;23.69;100.00;101279.13;5081309;27;45600;-81
2023/08/09 01:15:19;;;;;;;;;2.00;2.00;;;;;23.68;100.00;101280.06;5081157;27;45456;-82
2023/08/09 01:17:48;;;;;;;;;2.00;2.00;;;;;23.63;100.00;101284.72;5094966;27;45592;-81
2023/08/09 01:20:13;;;;;;;;;4.67;2.00;;;;;23.61;100.00;101283.88;5060756;28;48070;-82
2023/08/09 01:22:45;;;;;;;;;2.00;2.00;;;;;23.60;100.00;101279.44;5075894;27;45348;-82
2023/08/09 01:25:11;;;;;;;;;2.00;2.00;;;;;23.79;100.00;101275.16;5095109;27;45552;-81
2023/08/09 01:27:37;;;;;;;;;2.00;2.00;;;;;23.57;100.00;101275.03;5097638;27;45490;-83
2023/08/09 01:30:04;;;;;;;;;1.67;1.67;;;;;23.58;100.00;101275.91;5080894;27;46389;-83
2023/08/09 01:32:30;;;;;;;;;5.00;3.00;;;;;23.60;100.00;101280.31;5099280;27;45493;-83
2023/08/09 01:34:56;;;;;;;;;2.67;1.00;;;;;23.59;100.00;101280.34;5099758;27;46162;-83
2023/08/09 01:37:46;;;;;;;;;1.00;1.00;;;;;23.59;100.00;101283.03;5080082;27;45323;-84
2023/08/09 01:40:15;;;;;;;;;4.67;2.00;;;;;23.59;100.00;101292.00;5079820;27;45470;-81
2023/08/09 01:42:41;;;;;;;;;2.67;1.67;;;;;23.55;100.00;101289.50;5104501;27;45512;-82
2023/08/09 01:45:10;;;;;;;;;2.00;2.00;;;;;23.56;100.00;101293.94;5084635;27;45457;-82
2023/08/09 01:47:35;;;;;;;;;1.00;1.00;;;;;23.53;100.00;101292.22;5100394;27;45544;-81
2023/08/09 01:50:01;;;;;;;;;4.67;3.67;;;;;23.46;100.00;101293.38;5102197;27;46386;-84
2023/08/09 01:52:26;;;;;;;;;3.33;2.00;;;;;23.46;100.00;101293.38;5097776;27;59030;-83
2023/08/09 01:54:53;;;;;;;;;4.00;2.67;;;;;23.53;100.00;101284.16;5099309;27;45476;-82
2023/08/09 01:57:19;;;;;;;;;4.00;2.00;;;;;23.44;100.00;101295.28;5102942;27;45507;-84
2023/08/09 01:59:44;;;;;;;;;1.00;1.00;;;;;23.37;100.00;101288.31;5101321;27;48076;-83
2023/08/09 02:02:09;;;;;;;;;2.00;2.00;;;;;23.35;100.00;101296.47;5097408;27;69342;-82
2023/08/09 02:04:35;;;;;;;;;4.00;2.00;;;;;23.33;100.00;101292.03;5098033;27;60466;-83
2023/08/09 02:07:01;;;;;;;;;1.00;1.00;;;;;23.27;100.00;101294.00;5098768;27;45497;-82
2023/08/09 02:09:30;;;;;;;;;2.33;2.33;;;;;23.31;100.00;101291.22;5097704;27;65737;-81
2023/08/09 02:11:55;;;;;;;;;2.33;2.33;;;;;23.29;100.00;101285.91;5090096;27;45383;-82
2023/08/09 02:14:21;;;;;;;;;2.00;2.00;;;;;23.26;100.00;101289.56;5098746;27;45434;-82
2023/08/09 02:16:46;;;;;;;;;2.33;2.33;;;;;23.30;100.00;101300.25;5171633;22;49393;-83
2023/08/09 02:19:12;;;;;;;;;1.00;1.00;;;;;23.34;100.00;101294.72;5057831;28;46351;-80
2023/08/09 02:21:38;;;;;;;;;2.00;2.00;;;;;23.32;100.00;101295.66;5053569;28;45430;-79
2023/08/09 02:24:05;;;;;;;;;2.00;2.00;;;;;23.31;100.00;101288.53;5056247;28;45363;-80
2023/08/09 02:26:31;;;;;;;;;1.67;1.67;;;;;23.34;100.00;101283.94;5057164;28;45578;-81
2023/08/09 02:28:56;;;;;;;;;2.00;2.00;;;;;23.34;100.00;101278.53;5055983;28;46665;-80
2023/08/09 02:31:21;;;;;;;;;3.00;1.33;;;;;23.36;100.00;101275.78;5053654;28;45635;-80
2023/08/09 02:33:47;;;;;;;;;3.33;2.00;;;;;23.21;100.00;101286.16;5054022;28;45362;-80
2023/08/09 02:36:12;;;;;;;;;1.00;1.00;;;;;23.14;100.00;101287.28;5056130;28;60677;-80
2023/08/09 02:38:37;;;;;;;;;2.00;2.00;;;;;23.08;100.00;101292.00;5055904;28;65688;-80
2023/08/09 02:41:06;;;;;;;;;4.00;2.00;;;;;22.98;100.00;101286.06;5051408;28;69540;-80
2023/08/09 02:43:31;;;;;;;;;1.00;1.00;;;;;22.97;100.00;101287.00;5056616;28;45334;-80
2023/08/09 02:45:57;;;;;;;;;2.00;2.00;;;;;22.97;100.00;101285.16;5056905;28;45589;-79
2023/08/09 02:48:24;;;;;;;;;2.00;2.00;;;;;23.15;100.00;101288.19;5056688;28;45972;-80
2023/08/09 02:50:49;;;;;;;;;1.00;1.00;;;;;23.20;100.00;101291.59;5048664;28;45555;-78
2023/08/09 02:53:15;;;;;;;;;2.33;2.00;;;;;23.15;100.00;101304.34;5053432;28;45615;-80
2023/08/09 02:55:42;;;;;;;;;3.00;2.00;;;;;22.89;100.00;101299.81;5055891;28;45534;-80
2023/08/09 02:58:07;;;;;;;;;1.00;1.00;;;;;22.81;100.00;101293.78;5056664;28;45734;-80
2023/08/09 03:00:33;;;;;;;;;2.00;2.00;;;;;22.82;100.00;101288.34;5057352;28;45465;-80
2023/08/09 03:02:59;;;;;;;;;2.00;2.00;;;;;22.86;100.00;101297.19;5062304;28;45493;-80
2023/08/09 03:05:25;;;;;;;;;1.33;1.33;;;;;22.89;100.00;101297.13;5057690;28;45603;-79
2023/08/09 03:07:51;;;;;;;;;3.00;1.00;;;;;22.89;100.00;101287.22;5056671;28;48107;-80
2023/08/09 03:10:16;;;;;;;;;5.00;2.00;;;;;22.93;100.00;101288.88;5055729;28;45406;-80
2023/08/09 03:12:42;;;;;;;;;1.00;1.00;;;;;22.95;100.00;101289.72;5056743;28;45426;-79
2023/08/09 03:15:08;;;;;;;;;4.33;1.33;;;;;22.92;100.00;101300.59;5056922;28;45264;-80
2023/08/09 03:17:33;;;;;;;;;1.67;1.67;;;;;22.96;100.00;101302.28;5056288;28;47462;-80
2023/08/09 03:19:59;;;;;;;;;2.67;1.33;;;;;23.02;100.00;101313.78;5056221;28;45448;-80
2023/08/09 03:22:24;;;;;;;;;2.33;1.00;;;;;23.03;100.00;101310.16;5055551;28;60409;-80
2023/08/09 03:24:50;;;;;;;;;2.00;1.00;;;;;23.04;100.00;101312.78;5055283;28;63356;-80
2023/08/09 03:27:16;;;;;;;;;1.67;1.00;;;;;23.09;100.00;101321.59;5055568;28;46393;-79
2023/08/09 03:29:41;;;;;;;;;2.00;2.00;;;;;23.09;100.00;101309.94;5056510;28;45528;-79
2023/08/09 03:32:06;;;;;;;;;3.00;1.67;;;;;23.12;100.00;101317.94;5054467;28;55810;-80
2023/08/09 03:34:32;;;;;;;;;1.33;1.33;;;;;23.14;100.00;101314.22;5055793;28;59455;-80
2023/08/09 03:36:57;;;;;;;;;3.00;1.00;;;;;23.11;100.00;101314.31;5055659;28;47438;-82
2023/08/09 03:39:23;;;;;;;;;2.00;1.00;;;;;23.11;100.00;101314.31;5054905;28;67109;-79
2023/08/09 03:41:49;;;;;;;;;0.67;0.67;;;;;23.09;100.00;101318.91;5054448;28;45615;-80
2023/08/09 03:44:14;;;;;;;;;1.33;1.33;;;;;23.06;100.00;101323.50;5049494;28;45395;-81
2023/08/09 03:46:40;;;;;;;;;4.00;1.00;;;;;22.95;100.00;101313.94;5049988;28;71268;-80
2023/08/09 03:49:05;;;;;;;;;1.00;1.00;;;;;22.91;100.00;101323.09;5060021;28;45358;-79
2023/08/09 03:51:31;;;;;;;;;1.00;1.00;;;;;22.86;100.00;101318.75;5057954;27;45464;-79
2023/08/09 03:53:56;;;;;;;;;4.00;2.00;;;;;22.95;100.00;101329.22;5057385;28;45228;-79
2023/08/09 03:56:21;;;;;;;;;3.00;1.00;;;;;22.94;100.00;101331.03;5061122;28;68071;-79
2023/08/09 03:58:47;;;;;;;;;1.00;1.00;;;;;22.96;100.00;101341.78;5058527;27;45409;-81
2023/08/09 04:01:12;;;;;;;;;1.67;1.00;;;;;22.99;100.00;101334.47;5059220;28;62923;-80
2023/08/09 04:03:40;;;;;;;;;2.00;2.00;;;;;23.02;100.00;101340.72;5059482;28;45408;-81
2023/08/09 04:06:05;;;;;;;;;1.67;1.67;;;;;23.06;100.00;101345.03;5050270;28;46734;-79
2023/08/09 04:08:31;;;;;;;;;1.00;1.00;;;;;23.11;100.00;101341.25;5054336;27;45575;-80
2023/08/09 04:10:59;;;;;;;;;1.00;1.00;;;;;23.02;100.00;101348.78;5055109;28;46410;-82
2023/08/09 04:13:25;;;;;;;;;2.00;1.00;;;;;22.95;100.00;101345.38;5055950;28;45551;-81
2023/08/09 04:15:50;;;;;;;;;1.00;1.00;;;;;23.05;100.00;101349.56;5054175;28;46914;-82
2023/08/09 04:18:16;;;;;;;;;1.33;1.33;;;;;23.08;100.00;101352.16;5053117;28;56055;-80
2023/08/09 04:20:42;;;;;;;;;1.00;1.00;;;;;23.13;100.00;101360.09;5054529;28;45370;-79
2023/08/09 04:23:08;;;;;;;;;1.67;1.67;;;;;23.15;100.00;101359.09;5054125;28;45604;-79
2023/08/09 04:25:33;;;;;;;;;2.67;1.00;;;;;23.13;100.00;101352.00;5055427;28;46530;-80
2023/08/09 04:27:59;;;;;;;;;1.00;1.00;;;;;23.22;100.00;101363.38;5055960;28;45449;-80
2023/08/09 04:30:24;;;;;;;;;2.00;1.00;;;;;23.26;100.00;101365.00;5055056;28;45346;-82
2023/08/09 04:32:50;;;;;;;;;2.00;1.00;;;;;23.11;100.00;101370.03;5056028;28;45191;-80
2023/08/09 04:35:15;;;;;;;;;1.00;1.00;;;;;23.15;100.00;101371.69;5051290;28;46219;-78
2023/08/09 04:37:40;;;;;;;;;3.00;1.00;;;;;23.11;100.00;101365.50;5054537;28;67184;-79
2023/08/09 04:40:10;;;;;;;;;4.00;1.00;;;;;23.04;100.00;101372.03;5054955;28;65838;-80
2023/08/09 04:42:37;;;;;;;;;2.00;1.67;;;;;23.06;100.00;101370.16;5055755;28;45602;-80
2023/08/09 04:45:03;;;;;;;;;1.33;1.33;;;;;23.04;100.00;101373.84;5059611;28;46868;-80
2023/08/09 04:47:29;;;;;;;;;0.00;0.00;;;;;23.08;100.00;101381.78;5059896;28;45673;-80
2023/08/09 04:49:54;;;;;;;;;3.00;1.00;;;;;23.13;100.00;101370.88;5059471;27;45539;-80
2023/08/09 04:52:19;;;;;;;;;0.33;0.00;;;;;23.22;100.00;101370.53;5054749;28;62753;-80
2023/08/09 04:54:44;;;;;;;;;1.00;1.00;;;;;23.15;100.00;101382.47;5054680;28;56439;-79
2023/08/09 04:57:10;;;;;;;;;1.00;1.00;;;;;23.18;100.00;101383.25;5054290;28;63105;-80
2023/08/09 04:59:35;;;;;;;;;1.67;1.00;;;;;23.23;100.00;101388.50;5061655;28;63205;-80
2023/08/09 05:02:01;;;;;;;;;1.00;0.00;;;;;23.03;100.00;101394.53;5055007;28;56132;-82
2023/08/09 05:04:26;;;;;;;;;0.00;0.00;;;;;22.94;100.00;101381.34;5055184;28;46879;-85
2023/08/09 05:06:52;;;;;;;;;0.00;0.00;;;;;22.83;100.00;101392.41;5047759;28;61576;-87
2023/08/09 05:09:17;;;;;;;;;0.00;0.00;;;;;22.77;100.00;101383.66;5055423;28;45426;-85
2023/08/09 05:11:43;;;;;;;;;0.00;0.00;;;;;22.71;100.00;101384.72;5043310;28;60165;-84
2023/08/09 05:14:08;;;;;;;;;0.00;0.00;;;;;22.73;100.00;101388.22;5050418;28;54187;-88
2023/08/09 05:16:35;;;;;;;;;0.33;0.00;;;;;22.69;100.00;101395.53;5053337;28;45587;-86
2023/08/09 05:19:00;;;;;;;;;0.00;0.00;;;;;22.66;100.00;101389.34;5058142;28;45328;-85
2023/08/09 05:21:25;;;;;;;;;0.00;0.00;;;;;22.70;100.00;101396.41;5060035;28;45959;-85
2023/08/09 05:23:50;;;;;;;;;0.00;0.00;;;;;22.70;100.00;101386.53;5050067;28;59636;-84
2023/08/09 05:26:16;;;;;;;;;0.00;0.00;;;;;22.71;100.00;101384.72;5058704;28;65107;-83
2023/08/09 05:28:41;;;;;;;;;0.67;0.00;;;;;22.72;100.00;101394.56;5057136;28;45505;-85
2023/08/09 05:31:07;;;;;;;;;0.00;0.00;;;;;22.68;100.00;101395.56;5052665;28;47026;-84
2023/08/09 05:33:32;;;;;;;;;0.00;0.00;;;;;22.78;100.00;101406.94;5057714;28;47385;-84
2023/08/09 05:35:57;;;;;;;;;0.00;0.00;;;;;22.75;100.00;101405.25;5056117;28;58751;-81
2023/08/09 05:38:23;;;;;;;;;0.00;0.00;;;;;22.79;100.00;101408.69;5051022;28;45589;-79
2023/08/09 05:40:48;;;;;;;;;0.00;0.00;;;;;22.77;100.00;101411.44;5054871;28;45441;-79
2023/08/09 05:43:14;;;;;;;;;0.00;0.00;;;;;22.74;100.00;101412.44;5065670;28;45814;-79
2023/08/09 05:45:40;;;;;;;;;0.00;0.00;;;;;22.79;100.00;101412.28;5050439;28;45769;-78
2023/08/09 05:48:06;;;;;;;;;1.00;0.00;;;;;22.74;100.00;101414.22;5052101;28;45378;-84
2023/08/09 05:50:31;;;;;;;;;1.33;0.00;;;;;22.83;100.00;101415.75;5054173;28;61071;-78
2023/08/09 05:52:56;;;;;;;;;0.00;0.00;;;;;22.89;100.00;101407.53;5052770;28;46587;-81
2023/08/09 05:55:23;;;;;;;;;0.00;0.00;;;;;22.92;100.00;101407.44;5056098;28;51052;-78
2023/08/09 05:57:48;;;;;;;;;3.33;0.00;;;;;23.04;100.00;101408.88;5057563;28;45488;-78
2023/08/09 06:00:15;;;;;;;;;0.00;0.00;;;;;22.93;100.00;101410.09;5057177;28;60120;-78
2023/08/09 06:02:43;;;;;;;;;1.00;0.00;;;;;22.82;100.00;101412.19;5059800;28;47764;-80
2023/08/09 06:05:08;;;;;;;;;0.00;0.00;;;;;22.82;100.00;101419.41;5057707;28;45184;-80
2023/08/09 06:07:33;;;;;;;;;0.67;0.67;;;;;22.75;100.00;101407.94;5052875;28;45374;-80
2023/08/09 06:09:59;;;;;;;;;0.00;0.00;;;;;22.72;100.00;101410.72;5057226;28;45525;-80
2023/08/09 06:12:24;;;;;;;;;0.00;0.00;;;;;22.75;100.00;101411.50;5056251;28;46486;-78
2023/08/09 06:14:49;;;;;;;;;0.00;0.00;;;;;22.76;100.00;101412.38;5055363;28;62472;-78
2023/08/09 06:17:15;;;;;;;;;0.00;0.00;;;;;22.79;100.00;101430.25;5057358;28;45750;-80
2023/08/09 06:19:40;;;;;;;;;0.00;0.00;;;;;22.80;100.00;101424.84;5055248;28;63028;-78
2023/08/09 06:22:06;;;;;;;;;0.00;0.00;;;;;22.73;100.00;101437.56;5051400;28;71008;-76
2023/08/09 06:24:31;;;;;;;;;1.33;0.00;;;;;22.70;100.00;101437.69;5046396;28;67544;-75
2023/08/09 06:26:56;;;;;;;;;1.00;1.00;;;;;22.62;100.00;101439.69;5055976;28;45479;-78
2023/08/09 06:29:22;;;;;;;;;1.00;0.00;;;;;22.62;100.00;101442.41;5053646;28;53416;-78
2023/08/09 06:31:47;;;;;;;;;1.00;1.00;;;;;22.58;100.00;101437.16;5056149;28;67694;-78
2023/08/09 06:34:12;;;;;;;;;1.33;1.33;;;;;22.58;100.00;101453.28;5052679;28;68187;-78
2023/08/09 06:36:38;;;;;;;;;0.33;0.33;;;;;22.54;100.00;101454.34;5052159;28;62382;-77
2023/08/09 06:39:03;;;;;;;;;0.33;0.33;;;;;22.54;100.00;101452.53;5052948;28;45664;-78
2023/08/09 06:41:29;;;;;;;;;0.33;0.33;;;;;22.55;100.00;101454.28;5055367;28;45837;-77
2023/08/09 06:43:54;;;;;;;;;2.00;1.00;;;;;22.58;100.00;101458.69;5054810;28;62715;-78
2023/08/09 06:46:20;;;;;;;;;0.33;0.33;;;;;22.58;100.00;101464.06;5055594;28;45469;-78
2023/08/09 06:48:45;;;;;;;;;3.00;1.00;;;;;22.57;100.00;101470.38;5048082;28;45379;-77
2023/08/09 06:51:11;;;;;;;;;0.00;0.00;;;;;22.59;100.00;101466.72;5055205;28;65290;-78
2023/08/09 06:53:37;;;;;;;;;1.00;1.00;;;;;22.64;100.00;101474.69;5055261;28;45379;-79
2023/08/09 06:56:03;;;;;;;;;0.67;0.67;;;;;22.70;100.00;101474.50;5052764;28;46040;-76
2023/08/09 06:58:28;;;;;;;;;0.33;0.33;;;;;22.77;100.00;101483.28;5056628;28;45569;-77
2023/08/09 07:00:54;;;;;;;;;1.00;1.00;;;;;22.87;100.00;101468.59;5053573;28;47171;-77
2023/08/09 07:03:20;;;;;;;;;1.00;1.00;;;;;22.90;100.00;101472.09;5052526;28;58474;-79
2023/08/09 07:05:45;;;;;;;;;1.00;1.00;;;;;22.96;100.00;101463.88;5053091;28;45575;-78
2023/08/09 07:08:11;;;;;;;;;1.00;1.00;;;;;23.05;100.00;101476.16;5053150;28;62138;-80
2023/08/09 07:10:36;;;;;;;;;1.00;1.00;;;;;23.05;100.00;101468.06;5052534;28;63762;-79
2023/08/09 07:13:02;;;;;;;;;1.00;1.00;;;;;23.09;100.00;101476.94;5054004;28;69247;-76
2023/08/09 07:15:28;;;;;;;;;0.00;0.00;;;;;23.10;100.00;101476.03;5056003;28;45291;-76
2023/08/09 07:17:53;;;;;;;;;0.00;0.00;;;;;23.04;100.00;101482.47;5054304;28;45736;-78
2023/08/09 07:20:18;;;;;;;;;1.67;1.67;;;;;23.05;100.00;101488.75;5049264;28;47258;-80
2023/08/09 07:22:45;;;;;;;;;0.00;0.00;;;;;23.08;100.00;101488.66;5049958;28;55428;-79
2023/08/09 07:25:11;;;;;;;;;0.00;0.00;;;;;23.14;100.00;101492.03;5051624;28;45478;-81
2023/08/09 07:27:44;;;;;;;;;3.00;2.00;;;;;23.20;100.00;101485.59;5052019;28;45570;-80
2023/08/09 07:30:11;;;;;;;;;1.00;1.00;;;;;23.17;100.00;101477.59;5052156;28;47984;-80
2023/08/09 07:32:38;;;;;;;;;2.67;1.00;;;;;23.20;100.00;101478.38;5051019;28;46018;-80
2023/08/09 07:35:05;;;;;;;;;4.00;1.00;;;;;23.25;100.00;101489.91;5048157;28;45588;-84
2023/08/09 07:37:30;;;;;;;;;0.00;0.00;;;;;23.32;100.00;101484.31;5053703;28;45982;-81
2023/08/09 07:39:55;;;;;;;;;1.00;1.00;;;;;23.43;100.00;101488.44;5055119;28;46265;-81
2023/08/09 07:42:21;;;;;;;;;1.67;1.67;;;;;23.48;100.00;101489.16;5056935;28;69307;-83
2023/08/09 07:44:46;;;;;;;;;1.00;1.00;;;;;23.46;100.00;101491.03;5055353;27;62169;-79
2023/08/09 07:47:11;;;;;;;;;1.00;1.00;;;;;23.47;100.00;101491.91;5052183;28;64435;-80
2023/08/09 07:49:37;;;;;;;;;1.33;1.33;;;;;23.48;100.00;101494.56;5052579;28;66200;-80
2023/08/09 07:52:02;;;;;;;;;1.00;1.00;;;;;23.58;100.00;101488.88;5052804;28;61409;-82
2023/08/09 07:54:28;;;;;;;;;1.00;0.00;;;;;23.60;100.00;101496.00;5054354;28;45288;-79
2023/08/09 07:56:53;;;;;;;;;1.00;1.00;;;;;23.63;100.00;101485.13;5050764;28;60857;-79
2023/08/09 07:59:18;;;;;;;;;0.00;0.00;;;;;23.71;100.00;101492.97;5048284;28;46959;-79
2023/08/09 08:01:44;;;;;;;;;2.00;0.00;;;;;23.73;100.00;101478.50;5051181;28;64250;-79
2023/08/09 08:04:10;;;;;;;;;1.00;1.00;;;;;23.83;100.00;101484.47;5048655;28;45458;-80
2023/08/09 08:06:35;;;;;;;;;1.00;1.00;;;;;23.87;100.00;101486.13;5054032;28;45507;-83
2023/08/09 08:09:01;;;;;;;;;1.00;1.00;;;;;23.87;100.00;101490.66;5054458;28;65194;-81
2023/08/09 08:11:26;;;;;;;;;0.00;0.00;;;;;23.78;100.00;101487.31;5055274;28;46167;-85
2023/08/09 08:13:51;;;;;;;;;2.67;1.00;;;;;23.75;100.00;101494.63;5058605;28;53122;-81
2023/08/09 08:16:17;;;;;;;;;2.67;0.67;;;;;23.65;100.00;101501.25;5054630;28;50837;-78
2023/08/09 08:18:42;;;;;;;;;2.00;1.00;;;;;23.58;100.00;101505.06;5051598;28;66973;-78
2023/08/09 08:21:08;;;;;;;;;0.00;0.00;;;;;23.55;100.00;101502.47;5049580;28;65588;-81
2023/08/09 08:23:34;;;;;;;;;2.00;0.00;;;;;23.60;100.00;101501.38;5045010;28;45305;-82
2023/08/09 08:25:59;;;;;;;;;0.33;0.33;;;;;23.66;100.00;101498.53;5052258;28;45413;-80
2023/08/09 08:28:25;;;;;;;;;1.67;0.33;;;;;23.67;100.00;101507.50;5053209;28;64665;-81
2023/08/09 08:30:50;;;;;;;;;1.00;1.00;;;;;23.81;100.00;101510.63;5051883;28;45611;-80
2023/08/09 08:33:16;;;;;;;;;0.67;0.67;;;;;23.93;100.00;101512.91;5053036;28;45482;-82
2023/08/09 08:35:48;;;;;;;;;0.00;0.00;;;;;24.08;100.00;101510.63;5052038;28;45565;-79
2023/08/09 08:38:15;;;;;;;;;0.00;0.00;;;;;24.17;100.00;101508.47;5051807;28;46582;-80
2023/08/09 08:40:40;;;;;;;;;0.00;0.00;;;;;24.29;100.00;101523.38;5047620;28;45355;-83
2023/08/09 08:43:08;;;;;;;;;0.00;0.00;;;;;24.33;100.00;101514.22;5048995;28;62093;-81
2023/08/09 08:45:36;;;;;;;;;1.00;1.00;;;;;24.45;100.00;101524.63;5056577;28;45498;-82
2023/08/09 08:48:02;;;;;;;;;0.00;0.00;;;;;24.65;100.00;101518.50;5052911;27;46389;-80
2023/08/09 08:50:30;;;;;;;;;0.00;0.00;;;;;24.62;100.00;101524.03;5042460;28;46341;-80
2023/08/09 08:52:55;;;;;;;;;0.00;0.00;;;;;24.54;100.00;101524.28;5059648;28;45239;-83
2023/08/09 08:55:21;;;;;;;;;0.00;0.00;;;;;24.53;100.00;101521.66;5052471;28;46603;-83
2023/08/09 08:57:47;;;;;;;;;0.67;0.67;;;;;24.57;100.00;101526.00;5051723;28;67332;-81
2023/08/09 09:00:17;;;;;;;;;0.33;0.33;;;;;24.63;100.00;101533.88;5059548;28;45267;-81
2023/08/09 09:02:43;;;;;;;;;0.67;0.67;;;;;24.61;100.00;101530.38;5053904;28;45504;-82
2023/08/09 09:05:10;;;;;;;;;0.00;0.00;;;;;24.55;100.00;101531.47;5055013;28;45540;-80
2023/08/09 09:07:36;;;;;;;;;2.33;1.00;;;;;24.50;100.00;101522.66;5051501;28;47540;-82
2023/08/09 09:10:04;;;;;;;;;0.67;0.67;;;;;24.53;100.00;101537.84;5053444;28;45375;-82
2023/08/09 09:12:30;;;;;;;;;1.00;1.00;;;;;24.68;100.00;101537.28;5036276;28;45599;-81
2023/08/09 09:14:56;;;;;;;;;0.00;0.00;;;;;24.81;100.00;101537.72;5052938;28;45645;-81
2023/08/09 09:17:21;;;;;;;;;1.67;1.00;;;;;24.93;100.00;101522.84;5051756;28;46969;-81
2023/08/09 09:19:47;;;;;;;;;0.00;0.00;;;;;25.01;100.00;101528.88;5054033;28;45456;-84
2023/08/09 09:22:30;;;;;;;;;1.00;1.00;;;;;25.13;100.00;101539.22;5055156;28;45494;-81
2023/08/09 09:24:59;;;;;;;;;1.00;1.00;;;;;25.22;100.00;101533.47;5048643;28;45549;-81
2023/08/09 09:27:29;;;;;;;;;1.67;1.00;;;;;25.25;100.00;101532.50;5043295;28;47556;-80
2023/08/09 09:29:54;;;;;;;;;1.33;1.33;;;;;25.27;100.00;101539.59;5049948;28;45667;-82
2023/08/09 09:32:20;;;;;;;;;1.00;1.00;;;;;25.32;100.00;101536.72;5048377;28;45597;-80
2023/08/09 09:34:45;;;;;;;;;0.00;0.00;;;;;25.34;100.00;101532.13;5050970;28;45499;-82
2023/08/09 09:37:17;;;;;;;;;1.00;1.00;;;;;25.36;100.00;101532.97;5054620;28;46511;-81
2023/08/09 09:39:43;;;;;;;;;0.00;0.00;;;;;25.41;100.00;101539.06;5041088;28;45625;-80
2023/08/09 09:42:10;;;;;;;;;1.00;1.00;;;;;25.44;100.00;101536.22;5048480;28;45220;-82
2023/08/09 09:44:36;;;;;;;;;1.00;1.00;;;;;25.41;100.00;101535.44;5048653;28;45393;-80
2023/08/09 09:47:03;;;;;;;;;1.00;1.00;;;;;25.51;100.00;101547.66;5052771;28;63431;-82
2023/08/09 09:49:28;;;;;;;;;0.67;0.67;;;;;25.48;100.00;101542.41;5051426;28;45409;-82
2023/08/09 09:51:54;;;;;;;;;3.67;1.67;;;;;25.51;100.00;101543.13;5056867;28;45288;-82
2023/08/09 09:54:21;;;;;;;;;1.00;1.00;;;;;25.53;100.00;101537.69;5054151;28;45555;-81
2023/08/09 09:56:46;;;;;;;;;1.00;1.00;;;;;25.58;100.00;101532.97;5049384;28;47570;-80
2023/08/09 09:59:12;;;;;;;;;1.00;1.00;;;;;25.84;100.00;101532.81;5053478;28;45471;-82
2023/08/09 10:01:41;;;;;;;;;1.00;0.67;;;;;25.91;100.00;101541.56;5056782;28;65092;-82
2023/08/09 10:04:10;;;;;;;;;0.67;0.67;;;;;26.15;100.00;101536.91;5055000;28;45643;-80
2023/08/09 10:06:42;;;;;;;;;3.33;1.00;;;;;26.27;100.00;101535.53;5054404;28;48120;-81
2023/08/09 10:09:08;;;;;;;;;2.00;2.00;;;;;26.31;100.00;101534.44;5056548;28;45639;-81
2023/08/09 10:11:37;;;;;;;;;1.00;1.00;;;;;26.27;100.00;101532.84;5057102;28;45183;-80
2023/08/09 10:14:04;;;;;;;;;0.33;0.33;;;;;26.33;100.00;101537.97;5056289;28;45574;-81
2023/08/09 10:16:31;;;;;;;;;0.33;0.33;;;;;26.25;100.00;101537.41;5059129;28;47545;-80
2023/08/09 10:19:00;;;;;;;;;1.00;1.00;;;;;26.24;100.00;101527.53;5056222;28;68923;-80
2023/08/09 10:21:26;;;;;;;;;1.67;1.00;;;;;26.21;100.00;101528.56;5047555;28;45584;-82
2023/08/09 10:24:10;;;;;;;;;1.33;1.33;;;;;26.37;100.00;101545.91;5056175;28;45754;-80
2023/08/09 10:26:36;;;;;;;;;2.00;2.00;;;;;26.42;100.00;101542.13;5049567;28;47023;-81
2023/08/09 10:29:06;;;;;;;;;1.00;1.00;;;;;26.53;100.00;101531.72;5053410;28;45508;-80
2023/08/09 10:31:59;;;;;;;;;1.00;1.00;;;;;26.61;100.00;101551.22;5052224;28;45596;-80
2023/08/09 10:34:40;;;;;;;;;1.00;1.00;;;;;26.60;100.00;101544.91;5046447;28;45292;-81
2023/08/09 10:37:06;;;;;;;;;2.00;2.00;;;;;26.49;100.00;101547.22;5054136;28;46958;-81
2023/08/09 10:39:32;;;;;;;;;1.00;1.00;;;;;26.38;100.00;101546.78;5057184;28;45449;-81
2023/08/09 10:42:00;;;;;;;;;1.67;1.00;;;;;26.21;100.00;101555.63;5041025;28;45414;-81
2023/08/09 10:44:37;;;;;;;;;1.33;1.33;;;;;26.06;100.00;101548.16;5056906;28;45384;-80
2023/08/09 10:47:10;;;;;;;;;1.67;1.67;;;;;25.98;100.00;101559.28;5073051;27;45663;-79
2023/08/09 10:49:48;;;;;;;;;1.00;1.00;;;;;25.92;100.00;101556.84;5056335;28;45428;-80
2023/08/09 10:52:18;;;;;;;;;1.67;1.67;;;;;25.91;100.00;101560.50;5051136;28;45485;-79
2023/08/09 10:54:45;;;;;;;;;1.33;1.33;;;;;25.89;100.00;101561.50;5053507;28;45403;-80
2023/08/09 10:57:11;;;;;;;;;1.00;1.00;;;;;25.92;100.00;101561.38;5055143;28;46846;-81
2023/08/09 10:59:43;;;;;;;;;1.67;1.67;;;;;25.98;100.00;101569.25;5051098;28;45761;-78
2023/08/09 11:02:08;;;;;;;;;2.00;1.00;;;;;26.03;100.00;101564.53;5056162;28;45454;-81
2023/08/09 11:04:34;;;;;;;;;5.00;3.00;;;;;26.15;100.00;101568.53;5057352;28;45433;-81
2023/08/09 11:06:59;;;;;;;;;1.00;1.00;;;;;26.25;100.00;101569.91;5053000;28;47206;-81
2023/08/09 11:09:26;;;;;;;;;1.00;1.00;;;;;26.39;100.00;101568.38;5053113;28;45401;-82
2023/08/09 11:11:53;;;;;;;;;1.00;1.00;;;;;26.59;100.00;101562.13;5056481;28;45425;-79
2023/08/09 11:14:20;;;;;;;;;1.33;1.33;;;;;26.79;100.00;101555.81;5054474;28;45395;-80